Time;durP1;ratioP1;P1;durP2;ratioP2;P2;SDS_P1;SDS_P2;PMS_P1;PMS_P2;Temp;Humidity;BMP_temperature;BMP_pressure;BME280_temperature;BME280_humidity;BME280_pressure;Samples;Min_cycle;Max_cycle;Signal;HPM_P1;HPM_P2
2023/05/14 00:04:41;;;;;;;32.25;24.08;;;;;;;9.14;100.00;101713.28;10518286;28;20123;-83
2023/05/14 00:09:41;;;;;;;27.08;21.55;;;;;;;9.18;100.00;101708.38;10511595;28;20044;-83
2023/05/14 00:14:42;;;;;;;31.75;21.30;;;;;;;9.03;100.00;101707.38;10524475;28;20119;-83
2023/05/14 00:19:42;;;;;;;32.42;25.00;;;;;;;8.90;100.00;101700.38;10497462;28;20460;-83
2023/05/14 00:24:43;;;;;;;30.83;24.13;;;;;;;8.81;100.00;101696.34;10517887;28;20065;-83
2023/05/14 00:29:44;;;;;;;38.05;27.35;;;;;;;8.73;100.00;101700.16;10486870;28;20047;-82
2023/05/14 00:34:45;;;;;;;36.28;26.15;;;;;;;8.68;100.00;101693.72;10524238;28;20036;-82
2023/05/14 00:39:45;;;;;;;35.08;25.30;;;;;;;8.81;100.00;101690.25;10494600;28;20127;-82
2023/05/14 00:44:46;;;;;;;34.78;24.25;;;;;;;8.87;100.00;101681.91;10517008;28;20463;-84
2023/05/14 00:49:46;;;;;;;38.15;28.02;;;;;;;8.81;100.00;101675.47;10524515;28;20122;-83
2023/05/14 00:54:47;;;;;;;34.40;26.02;;;;;;;8.74;100.00;101673.25;10490024;28;20546;-83
2023/05/14 00:59:47;;;;;;;47.53;26.98;;;;;;;8.73;100.00;101666.22;10511168;28;20049;-83
2023/05/14 01:04:48;;;;;;;39.22;27.00;;;;;;;8.70;100.00;101655.56;10495046;28;20403;-83
2023/05/14 01:10:34;;;;;;;35.17;27.38;;;;;;;8.61;100.00;101660.16;10513356;28;20047;-82
2023/05/14 01:15:35;;;;;;;37.80;27.77;;;;;;;8.48;100.00;101664.50;10461451;28;20101;-83
2023/05/14 01:20:35;;;;;;;45.45;30.95;;;;;;;8.46;100.00;101650.44;10508690;28;20064;-83
2023/05/14 01:25:36;;;;;;;43.75;30.52;;;;;;;8.61;100.00;101657.56;10469715;28;20044;-83
2023/05/14 01:30:41;;;;;;;44.15;31.67;;;;;;;8.48;100.00;101661.91;10495738;28;20032;-83
2023/05/14 01:35:41;;;;;;;44.75;30.83;;;;;;;8.32;100.00;101653.81;10501488;28;20044;-85
2023/05/14 01:40:42;;;;;;;49.63;33.75;;;;;;;8.29;100.00;101650.97;10518518;28;20083;-83
2023/05/14 01:45:42;;;;;;;41.63;33.85;;;;;;;8.16;100.00;101663.16;10501468;28;20097;-83
2023/05/14 01:50:43;;;;;;;49.28;34.65;;;;;;;8.15;100.00;101663.09;10497904;28;20051;-83
2023/05/14 01:55:43;;;;;;;49.55;32.60;;;;;;;8.25;100.00;101654.19;10507049;28;20063;-84
2023/05/14 02:00:44;;;;;;;44.47;33.22;;;;;;;8.15;100.00;101650.03;10525221;28;20040;-84
2023/05/14 02:05:44;;;;;;;57.47;33.85;;;;;;;8.20;100.00;101652.16;10471583;28;20498;-83
2023/05/14 02:10:45;;;;;;;47.22;32.85;;;;;;;8.10;100.00;101648.81;10523457;28;20127;-84
2023/05/14 02:15:45;;;;;;;44.70;32.00;;;;;;;8.09;100.00;101642.69;10522726;28;20040;-83
2023/05/14 02:20:46;;;;;;;48.70;31.83;;;;;;;7.96;100.00;101640.94;10498835;28;20136;-83
2023/05/14 02:25:46;;;;;;;45.08;33.55;;;;;;;7.88;100.00;101640.38;10526468;28;20048;-83
2023/05/14 02:30:47;;;;;;;40.63;30.20;;;;;;;7.78;100.00;101643.13;10523732;28;20036;-83
2023/05/14 02:35:47;;;;;;;42.08;29.42;;;;;;;7.66;100.00;101669.22;10513765;28;20067;-83
2023/05/14 02:40:48;;;;;;;36.13;26.33;;;;;;;7.56;100.00;101645.91;10523975;28;20028;-83
2023/05/14 02:45:48;;;;;;;40.80;28.35;;;;;;;7.32;100.00;101638.09;10489890;28;20122;-84
2023/05/14 02:50:50;;;;;;;40.40;29.67;;;;;;;7.20;100.00;101636.41;10520006;28;20127;-82
2023/05/14 02:55:50;;;;;;;34.92;27.17;;;;;;;7.25;100.00;101646.25;10497072;28;20047;-82
2023/05/14 03:00:51;;;;;;;41.65;29.88;;;;;;;7.13;100.00;101646.25;10525276;28;20123;-82
2023/05/14 03:05:51;;;;;;;43.25;31.05;;;;;;;7.15;100.00;101645.59;10524213;28;20075;-83
2023/05/14 03:10:52;;;;;;;42.22;31.35;;;;;;;7.13;100.00;101641.03;10505695;28;20040;-83
2023/05/14 03:15:53;;;;;;;46.92;31.05;;;;;;;7.25;100.00;101641.94;10522503;28;20032;-84
2023/05/14 03:20:54;;;;;;;46.20;30.47;;;;;;;7.25;100.00;101639.34;10481359;28;20044;-83
2023/05/14 03:25:55;;;;;;;43.97;30.27;;;;;;;7.34;100.00;101642.63;10513880;28;20078;-83
2023/05/14 03:30:55;;;;;;;43.22;31.75;;;;;;;7.24;100.00;101621.91;10519911;28;20040;-86
2023/05/14 03:35:56;;;;;;;44.20;29.45;;;;;;;7.25;100.00;101621.13;10506162;28;20127;-83
2023/05/14 03:40:57;;;;;;;40.75;31.17;;;;;;;7.12;100.00;101619.31;10504646;28;20139;-83
2023/05/14 03:45:57;;;;;;;45.45;31.65;;;;;;;7.11;100.00;101614.91;10520967;28;20036;-82
2023/05/14 03:50:58;;;;;;;44.70;34.25;;;;;;;7.12;100.00;101605.38;10523207;28;20690;-83
2023/05/14 03:55:58;;;;;;;46.10;33.15;;;;;;;7.09;100.00;101599.94;10522788;28;20060;-82
2023/05/14 04:00:59;;;;;;;44.13;32.42;;;;;;;6.98;100.00;101599.19;10522189;28;20074;-82
2023/05/14 04:06:00;;;;;;;40.63;30.70;;;;;;;6.85;100.00;101600.88;10530803;28;20063;-82
2023/05/14 04:11:00;;;;;;;46.92;34.72;;;;;;;6.86;100.00;101610.47;10509146;28;20113;-83
2023/05/14 04:16:01;;;;;;;47.33;33.25;;;;;;;6.93;100.00;101606.63;10528798;28;20071;-81
2023/05/14 04:21:01;;;;;;;42.67;35.55;;;;;;;7.05;100.00;101604.03;10528279;28;20127;-84
2023/05/14 04:26:02;;;;;;;43.38;33.22;;;;;;;7.10;100.00;101607.88;10512015;28;20086;-83
2023/05/14 04:31:03;;;;;;;45.90;35.70;;;;;;;7.13;100.00;101610.72;10512166;28;20036;-82
2023/05/14 04:36:04;;;;;;;54.72;37.13;;;;;;;7.25;100.00;101608.09;10528670;28;20125;-84
2023/05/14 04:41:05;;;;;;;53.53;39.13;;;;;;;7.40;100.00;101599.59;10520132;28;20056;-84
2023/05/14 04:46:05;;;;;;;51.83;39.42;;;;;;;7.47;100.00;101612.25;10529931;28;20126;-83
2023/05/14 04:51:06;;;;;;;49.00;37.28;;;;;;;7.55;100.00;101605.91;10525274;28;20040;-86
2023/05/14 04:56:06;;;;;;;51.00;37.05;;;;;;;7.65;100.00;101607.47;10530629;28;20169;-87
2023/05/14 05:01:07;;;;;;;53.47;35.97;;;;;;;7.72;100.00;101609.72;10527032;28;20438;-87
2023/05/14 05:06:15;;;;;;;46.08;33.83;;;;;;;7.88;100.00;101611.69;10526919;28;20080;-83
2023/05/14 05:11:15;;;;;;;53.75;35.60;;;;;;;8.06;100.00;101614.72;10507258;28;20071;-83
2023/05/14 05:16:16;;;;;;;49.05;35.22;;;;;;;8.40;100.00;101613.50;10524599;28;20135;-83
2023/05/14 05:21:16;;;;;;;48.42;35.22;;;;;;;8.73;100.00;101616.63;10510258;28;20111;-83
2023/05/14 05:26:17;;;;;;;38.58;26.73;;;;;;;9.93;100.00;101616.44;10526228;28;20535;-83
2023/05/14 05:31:17;;;;;;;30.40;23.63;;;;;;;11.07;100.00;101621.47;10526064;28;20111;-82
2023/05/14 05:36:18;;;;;;;22.73;18.50;;;;;;;12.15;100.00;101626.56;10507870;28;20120;-84
2023/05/14 05:41:18;;;;;;;17.20;15.35;;;;;;;13.60;100.00;101627.72;10502549;28;20502;-85
2023/05/14 05:46:19;;;;;;;19.88;14.85;;;;;;;14.81;100.00;101604.13;10524868;28;20043;-85
2023/05/14 05:51:22;;;;;;;22.60;15.30;;;;;;;16.48;100.00;101520.66;10523812;28;20507;-83
2023/05/14 05:56:34;;;;;;;18.52;15.73;;;;;;;17.78;100.00;101545.88;10522098;28;20043;-85
2023/05/14 06:01:47;;;;;;;17.10;15.40;;;;;;;18.69;100.00;101567.78;10509912;28;20047;-85
2023/05/14 06:06:47;;;;;;;21.17;15.02;;;;;;;19.24;100.00;101570.00;10514338;28;20531;-83
2023/05/14 06:11:48;;;;;;;30.30;15.33;;;;;;;19.90;100.00;101576.75;10514703;28;20039;-85
2023/05/14 06:16:48;;;;;;;17.47;15.43;;;;;;;20.20;100.00;101566.72;10507095;28;20067;-85
2023/05/14 06:21:49;;;;;;;19.87;15.43;;;;;;;20.54;100.00;101575.31;10527213;28;20067;-86
2023/05/14 06:26:50;;;;;;;16.97;13.93;;;;;;;20.35;100.00;101574.06;10488868;28;20054;-86
2023/05/14 06:31:50;;;;;;;17.23;15.37;;;;;;;20.81;100.00;101576.69;10525950;28;20066;-87
2023/05/14 06:36:51;;;;;;;19.20;15.03;;;;;;;21.31;100.00;101580.13;10524830;28;20536;-86
2023/05/14 06:41:51;;;;;;;15.30;13.80;;;;;;;22.21;98.88;101574.16;10524335;28;20548;-86
2023/05/14 06:46:52;;;;;;;18.60;16.80;;;;;;;22.14;94.46;101574.97;10525676;28;20066;-86
2023/05/14 06:51:53;;;;;;;15.60;13.87;;;;;;;22.88;92.37;101569.47;10523149;28;20459;-86
2023/05/14 06:56:53;;;;;;;15.82;13.35;;;;;;;23.27;82.50;101573.34;10525480;28;20064;-88
2023/05/14 07:01:54;;;;;;;14.23;12.53;;;;;;;23.55;79.02;101564.56;10505048;28;20074;-86
2023/05/14 07:06:54;;;;;;;14.68;13.02;;;;;;;24.25;77.18;101563.03;10525091;28;20032;-87
2023/05/14 07:11:55;;;;;;;16.13;14.47;;;;;;;24.08;78.52;101565.69;10490481;28;20056;-83
2023/05/14 07:16:56;;;;;;;16.50;14.80;;;;;;;24.16;74.67;101571.94;10521543;28;20040;-90
2023/05/14 07:21:56;;;;;;;20.67;16.53;;;;;;;24.49;75.20;101574.66;10522444;28;20047;-90
2023/05/14 07:26:57;;;;;;;16.48;14.77;;;;;;;24.56;73.34;101563.06;10521577;28;20294;-89
2023/05/14 07:31:58;;;;;;;18.63;16.27;;;;;;;24.77;73.41;101558.66;10505871;28;20135;-89
2023/05/14 07:36:58;;;;;;;17.87;16.00;;;;;;;24.47;73.34;101560.41;10495810;28;20285;-85
2023/05/14 07:41:59;;;;;;;22.67;16.73;;;;;;;23.70;74.57;101559.28;10524865;28;20178;-86
2023/05/14 07:47:00;;;;;;;18.52;16.73;;;;;;;24.11;77.13;101556.78;10513259;28;20076;-86
2023/05/14 07:52:02;;;;;;;23.42;15.32;;;;;;;25.69;67.51;101556.66;10528864;28;20075;-85
2023/05/14 07:57:02;;;;;;;21.30;14.77;;;;;;;26.49;60.08;101549.06;10524516;28;20036;-87
2023/05/14 08:02:03;;;;;;;20.60;18.38;;;;;;;26.53;65.32;101545.44;10525036;28;20483;-86
2023/05/14 08:07:04;;;;;;;20.42;15.88;;;;;;;25.32;69.97;101546.97;10499545;28;20454;-88
2023/05/14 08:12:05;;;;;;;19.83;17.67;;;;;;;25.02;72.43;101546.16;10505583;28;20115;-87
2023/05/14 08:17:06;;;;;;;22.48;18.85;;;;;;;25.02;70.90;101546.16;10509734;28;20048;-86
2023/05/14 08:22:06;;;;;;;19.43;17.23;;;;;;;26.21;68.22;101546.59;10504205;28;20494;-83
2023/05/14 08:27:08;;;;;;;20.58;17.63;;;;;;;25.66;66.46;101556.69;10516222;28;20040;-86
2023/05/14 08:32:08;;;;;;;19.10;15.50;;;;;;;25.84;66.23;101555.72;10510817;28;20052;-87
2023/05/14 08:37:09;;;;;;;22.93;17.50;;;;;;;25.87;67.01;101544.06;10512106;28;20051;-86
2023/05/14 08:42:11;;;;;;;20.23;18.07;;;;;;;25.59;67.53;101546.88;10526497;28;20122;-87
2023/05/14 08:47:11;;;;;;;23.75;15.98;;;;;;;26.05;64.60;101538.59;10507856;28;20047;-87
2023/05/14 08:52:12;;;;;;;26.80;19.27;;;;;;;26.82;66.31;101538.94;10513743;28;20036;-85
2023/05/14 08:57:12;;;;;;;22.65;18.58;;;;;;;26.02;66.78;101540.44;10516480;28;20040;-87
2023/05/14 09:02:13;;;;;;;21.80;19.63;;;;;;;25.32;67.40;101538.03;10487452;28;20067;-87
2023/05/14 09:07:14;;;;;;;25.60;19.00;;;;;;;25.60;69.43;101536.19;10494400;28;20043;-90
2023/05/14 09:12:15;;;;;;;27.25;17.85;;;;;;;26.04;67.92;101531.47;10489926;28;20085;-82
2023/05/14 09:17:16;;;;;;;21.67;16.73;;;;;;;27.31;62.48;101524.13;10520958;28;20044;-90
2023/05/14 09:22:17;;;;;;;18.92;16.92;;;;;;;28.30;61.95;101527.28;10489491;28;20047;-88
2023/05/14 09:27:20;;;;;;;20.00;18.10;;;;;;;28.62;57.38;101523.16;10524693;28;20495;-92
2023/05/14 09:32:21;;;;;;;17.63;15.45;;;;;;;28.93;53.58;101517.25;10491050;28;20089;-93
2023/05/14 09:37:24;;;;;;;25.77;17.47;;;;;;;28.47;59.60;101509.97;10496433;28;20220;-90
2023/05/14 09:42:25;;;;;;;26.23;18.25;;;;;;;28.82;59.63;101508.47;10502555;28;20445;-88
2023/05/14 09:47:25;;;;;;;17.90;15.88;;;;;;;29.45;50.63;101512.66;10512467;28;20127;-86
2023/05/14 09:52:26;;;;;;;19.83;16.70;;;;;;;28.88;52.46;101508.38;10503550;28;21938;-85
2023/05/14 09:57:27;;;;;;;17.30;15.33;;;;;;;28.92;52.64;101503.81;10499186;28;20043;-85
2023/05/14 10:02:36;;;;;;;19.23;14.10;;;;;;;29.48;49.82;101506.31;10481472;28;20043;-86
2023/05/14 10:07:46;;;;;;;16.58;14.80;;;;;;;29.38;50.19;101502.94;10495013;28;20104;-87
2023/05/14 10:12:56;;;;;;;17.23;15.25;;;;;;;29.66;46.95;101501.44;10474927;28;20047;-92
2023/05/14 10:17:59;;;;;;;19.90;16.58;;;;;;;28.80;50.46;101491.47;10490067;28;20451;-88
2023/05/14 10:22:59;;;;;;;19.08;16.33;;;;;;;28.16;52.85;101497.03;10488718;28;20403;-87
2023/05/14 10:28:00;;;;;;;16.73;14.80;;;;;;;28.62;50.45;101484.59;10520897;28;20072;-89
2023/05/14 10:33:07;;;;;;;18.53;15.70;;;;;;;28.58;55.96;101486.44;10485798;28;20404;-91
2023/05/14 10:38:08;;;;;;;18.70;13.35;;;;;;;29.16;50.45;101480.88;10474884;28;20496;-91
2023/05/14 10:43:10;;;;;;;14.13;11.40;;;;;;;29.90;46.31;101473.00;10506099;28;20054;-93
2023/05/14 10:48:10;;;;;;;19.55;16.38;;;;;;;29.39;46.31;101466.97;10497935;28;20042;-89
2023/05/14 10:53:12;;;;;;;15.07;10.10;;;;;;;30.10;40.87;101461.75;10504642;28;20040;-90
2023/05/14 10:58:12;;;;;;;20.00;17.27;;;;;;;30.03;48.92;101463.72;10524167;28;20036;-90
2023/05/14 11:03:13;;;;;;;20.37;16.50;;;;;;;27.97;52.93;101456.94;10508183;28;20082;-89
2023/05/14 11:08:13;;;;;;;19.33;17.33;;;;;;;25.13;59.11;101455.06;10524411;28;20115;-89
2023/05/14 11:13:15;;;;;;;21.80;17.97;;;;;;;23.30;62.48;101457.63;10510574;28;20178;-90
2023/05/14 11:18:27;;;;;;;21.08;18.13;;;;;;;22.30;74.08;101446.28;10512908;28;20040;-90
2023/05/14 11:23:27;;;;;;;29.88;19.65;;;;;;;21.97;77.84;101445.09;10504693;28;20126;-91
2023/05/14 11:28:28;;;;;;;21.77;17.70;;;;;;;22.03;75.02;101438.03;10532507;28;20044;-90
2023/05/14 11:33:29;;;;;;;19.93;17.70;;;;;;;22.03;77.34;101440.69;10532938;28;20127;-89
2023/05/14 11:38:29;;;;;;;16.47;14.30;;;;;;;21.76;76.10;101437.78;10531976;28;20127;-90
2023/05/14 11:43:30;;;;;;;19.50;16.87;;;;;;;22.23;69.47;101428.44;10528639;28;20506;-92
2023/05/14 11:48:30;;;;;;;15.53;13.63;;;;;;;23.14;64.37;101430.81;10513750;28;20166;-89
2023/05/14 11:53:31;;;;;;;18.97;13.70;;;;;;;24.33;59.77;101415.97;10531875;28;20082;-90
2023/05/14 11:58:32;;;;;;;15.90;13.87;;;;;;;25.71;61.44;101412.81;10528672;28;20086;-86
2023/05/14 12:03:33;;;;;;;16.50;11.55;;;;;;;27.31;50.84;101407.69;10513820;28;20037;-87
2023/05/14 12:08:33;;;;;;;19.20;12.37;;;;;;;27.89;48.30;101403.28;10520879;28;20082;-89
2023/05/14 12:13:34;;;;;;;14.43;10.90;;;;;;;25.85;50.90;101396.66;10513432;28;20081;-88
2023/05/14 12:18:35;;;;;;;15.50;11.93;;;;;;;25.60;54.97;101395.91;10499372;28;20039;-88
2023/05/14 12:23:37;;;;;;;10.57;8.02;;;;;;;26.38;48.72;101386.34;10520624;28;20123;-88
2023/05/14 12:28:41;;;;;;;8.10;6.65;;;;;;;28.48;44.70;101385.22;10524672;28;20048;-88
2023/05/14 12:33:42;;;;;;;10.25;8.00;;;;;;;29.27;46.88;101380.97;10528397;28;20039;-87
2023/05/14 12:38:42;;;;;;;10.97;9.13;;;;;;;29.37;46.87;101362.75;10528696;28;20068;-82
2023/05/14 12:43:43;;;;;;;10.50;6.83;;;;;;;27.32;48.01;101371.84;10497565;28;20449;-92
2023/05/14 12:48:44;;;;;;;8.60;6.73;;;;;;;26.61;52.17;101373.63;10512983;28;20028;-89
2023/05/14 12:53:44;;;;;;;10.27;7.87;;;;;;;25.00;55.23;101376.56;10509710;28;20108;-89
2023/05/14 12:58:45;;;;;;;9.97;8.60;;;;;;;23.54;60.68;101379.38;10527411;28;20075;-83
2023/05/14 13:03:46;;;;;;;10.77;9.25;;;;;;;22.65;62.70;101359.44;10528231;28;20044;-85
2023/05/14 13:08:47;;;;;;;10.37;8.33;;;;;;;22.30;62.70;101352.97;10502523;28;20048;-82
2023/05/14 13:13:47;;;;;;;8.47;6.90;;;;;;;24.72;59.78;101346.31;10502924;28;20177;-85
2023/05/14 13:18:47;;;;;;;15.60;6.00;;;;;;;25.70;53.51;101332.44;10504549;28;20151;-85
2023/05/14 13:23:48;;;;;;;13.33;5.73;;;;;;;27.25;48.59;101330.75;10504880;28;20454;-85
2023/05/14 13:28:49;;;;;;;11.13;6.80;;;;;;;25.38;46.44;101330.84;10520680;28;20036;-81
2023/05/14 13:33:51;;;;;;;5.47;4.20;;;;;;;23.16;46.44;101345.41;10512570;28;20119;-82
2023/05/14 13:38:51;;;;;;;5.45;4.28;;;;;;;22.05;50.46;101335.91;10516685;28;20055;-84
2023/05/14 13:43:52;;;;;;;8.53;5.03;;;;;;;21.71;56.29;101324.97;10526442;28;20063;-82
2023/05/14 13:48:53;;;;;;;7.57;4.87;;;;;;;23.24;55.50;101316.09;10520132;28;20046;-85
2023/05/14 13:53:53;;;;;;;9.60;5.13;;;;;;;25.44;52.21;101307.56;10505702;28;20044;-85
2023/05/14 13:58:54;;;;;;;11.50;5.63;;;;;;;26.32;47.67;101305.06;10525137;28;20039;-85
2023/05/14 14:03:55;;;;;;;9.23;4.65;;;;;;;26.37;46.78;101296.03;10525530;28;20545;-85
2023/05/14 14:08:56;;;;;;;8.18;5.30;;;;;;;26.13;46.68;101288.22;10500145;28;20054;-85
2023/05/14 14:13:56;;;;;;;4.87;4.10;;;;;;;25.83;46.71;101293.91;10489625;28;20061;-81
2023/05/14 14:18:56;;;;;;;6.43;4.23;;;;;;;25.45;50.95;101284.41;10523732;28;20424;-85
2023/05/14 14:23:57;;;;;;;6.00;3.90;;;;;;;25.22;49.67;101283.59;10512445;28;20068;-86
2023/05/14 14:28:58;;;;;;;7.50;5.07;;;;;;;25.32;47.61;101273.75;10494502;28;20032;-86
2023/05/14 14:33:58;;;;;;;8.50;4.30;;;;;;;25.44;43.16;101280.78;10512240;28;20123;-82
2023/05/14 14:38:59;;;;;;;8.30;5.30;;;;;;;24.89;48.98;101276.69;10520132;28;20074;-83
2023/05/14 14:44:01;;;;;;;6.93;5.00;;;;;;;24.54;49.36;101275.91;10511281;28;20484;-86
2023/05/14 14:49:02;;;;;;;5.20;3.75;;;;;;;24.53;42.67;101271.44;10521907;28;20036;-82
2023/05/14 14:54:03;;;;;;;5.27;3.90;;;;;;;23.97;47.37;101263.56;10511674;28;20532;-83
2023/05/14 14:59:04;;;;;;;5.55;3.80;;;;;;;23.96;43.64;101256.44;10525923;28;20058;-83
2023/05/14 15:04:05;;;;;;;6.40;4.50;;;;;;;23.39;47.97;101262.69;10521553;28;20136;-86
2023/05/14 15:09:06;;;;;;;6.63;4.80;;;;;;;23.19;47.47;101254.66;10517696;28;20452;-86
2023/05/14 15:14:07;;;;;;;10.85;4.65;;;;;;;23.03;49.56;101259.06;10503754;28;20055;-86
2023/05/14 15:19:07;;;;;;;6.57;3.47;;;;;;;22.80;48.93;101254.53;10524833;28;20426;-85
2023/05/14 15:24:14;;;;;;;6.20;3.90;;;;;;;22.75;48.38;101256.31;10454986;28;20131;-83
2023/05/14 15:29:14;;;;;;;4.85;3.75;;;;;;;22.66;46.74;101254.53;10508871;28;20051;-85
2023/05/14 15:34:15;;;;;;;5.40;3.77;;;;;;;22.52;50.96;101249.13;10525239;28;20058;-85
2023/05/14 15:39:15;;;;;;;4.73;3.77;;;;;;;22.24;47.40;101259.63;10519039;28;20056;-85
2023/05/14 15:44:16;;;;;;;7.80;4.77;;;;;;;21.97;54.30;101247.91;10519920;28;20078;-87
2023/05/14 15:49:16;;;;;;;9.23;5.77;;;;;;;21.54;56.47;101253.78;10505084;28;20395;-86
2023/05/14 15:54:17;;;;;;;11.27;5.67;;;;;;;21.03;57.67;101244.44;10522302;28;20070;-84
2023/05/14 15:59:18;;;;;;;9.60;5.43;;;;;;;20.73;58.11;101243.19;10487655;28;20040;-85
2023/05/14 16:04:18;;;;;;;9.83;4.93;;;;;;;20.72;61.42;101242.28;10526640;28;20434;-83
2023/05/14 16:09:19;;;;;;;5.97;4.17;;;;;;;20.94;58.61;101239.91;10515680;28;20119;-86
2023/05/14 16:14:19;;;;;;;6.67;5.30;;;;;;;21.05;60.86;101238.25;10531349;28;20144;-86
2023/05/14 16:19:20;;;;;;;7.17;5.33;;;;;;;21.05;58.47;101242.69;10524842;28;20066;-84
2023/05/14 16:24:20;;;;;;;6.80;5.73;;;;;;;20.92;57.86;101241.66;10524358;28;20432;-86
2023/05/14 16:29:21;;;;;;;13.73;5.73;;;;;;;20.81;61.37;101246.88;10521602;28;20047;-82
2023/05/14 16:34:21;;;;;;;6.00;4.90;;;;;;;20.75;62.97;101252.97;10486587;28;20521;-85
2023/05/14 16:39:22;;;;;;;5.93;4.40;;;;;;;20.85;63.01;101239.78;10525217;28;20107;-84
2023/05/14 16:44:22;;;;;;;8.47;4.47;;;;;;;20.66;61.00;101245.78;10531152;28;20063;-82
2023/05/14 16:49:23;;;;;;;6.13;4.20;;;;;;;20.48;59.94;101240.22;10527611;28;20109;-85
2023/05/14 16:54:24;;;;;;;6.70;4.23;;;;;;;20.38;61.20;101242.78;10528248;28;20123;-85
2023/05/14 16:59:25;;;;;;;5.57;4.27;;;;;;;20.08;62.44;101249.47;10522292;28;20104;-83
2023/05/14 17:04:25;;;;;;;9.40;6.47;;;;;;;19.85;63.69;101248.19;10511662;28;20073;-83
2023/05/14 17:09:26;;;;;;;6.03;4.33;;;;;;;19.58;61.62;101241.56;10525630;28;20052;-90
2023/05/14 17:14:26;;;;;;;6.35;4.75;;;;;;;19.32;61.02;101247.31;10526422;28;20064;-86
2023/05/14 17:19:27;;;;;;;5.63;4.53;;;;;;;19.17;63.56;101251.50;10527101;28;20131;-85
2023/05/14 17:24:27;;;;;;;7.03;4.28;;;;;;;18.95;63.43;101254.56;10526951;28;20514;-85
2023/05/14 17:29:27;;;;;;;6.18;5.13;;;;;;;18.73;63.73;101252.38;10508256;28;20052;-84
2023/05/14 17:34:28;;;;;;;11.05;5.20;;;;;;;18.56;66.76;101254.69;10483194;28;20588;-85
2023/05/14 17:39:29;;;;;;;7.70;4.88;;;;;;;18.40;69.87;101256.09;10511082;28;20144;-85
2023/05/14 17:44:29;;;;;;;8.38;5.07;;;;;;;18.25;72.87;101251.38;10527377;28;20067;-85
2023/05/14 17:49:30;;;;;;;6.97;5.47;;;;;;;17.96;77.30;101255.97;10520302;28;20090;-86
2023/05/14 17:54:30;;;;;;;8.25;5.65;;;;;;;17.78;80.65;101259.09;10515767;28;20063;-86
2023/05/14 17:59:31;;;;;;;10.20;5.53;;;;;;;17.61;84.87;101257.81;10488970;28;20048;-85
2023/05/14 18:04:31;;;;;;;7.82;5.55;;;;;;;17.43;90.80;101262.63;10522123;28;20044;-84
2023/05/14 18:09:31;;;;;;;7.53;5.15;;;;;;;17.28;98.68;101260.50;10523780;28;20124;-85
2023/05/14 18:14:32;;;;;;;14.98;6.05;;;;;;;17.12;100.00;101264.47;10525903;28;20061;-85
2023/05/14 18:19:32;;;;;;;9.32;6.57;;;;;;;16.92;100.00;101271.84;10519383;28;20567;-85
2023/05/14 18:24:33;;;;;;;11.10;5.53;;;;;;;16.73;100.00;101264.25;10507589;28;20036;-83
2023/05/14 18:29:34;;;;;;;11.65;6.70;;;;;;;16.53;100.00;101270.72;10525005;28;20169;-85
2023/05/14 18:34:34;;;;;;;8.05;6.47;;;;;;;16.35;100.00;101264.03;10507415;28;20123;-85
2023/05/14 18:39:35;;;;;;;10.85;7.38;;;;;;;16.12;100.00;101255.41;10523794;28;20064;-85
2023/05/14 18:44:35;;;;;;;9.20;6.18;;;;;;;15.93;100.00;101264.47;10508269;28;20174;-84
2023/05/14 18:49:38;;;;;;;9.27;6.65;;;;;;;15.73;100.00;101261.19;10511852;28;20067;-84
2023/05/14 18:54:39;;;;;;;13.40;7.28;;;;;;;15.59;100.00;101268.63;10526173;28;20479;-85
2023/05/14 18:59:39;;;;;;;12.13;7.00;;;;;;;15.52;100.00;101273.69;10523051;28;20115;-84
2023/05/14 19:04:40;;;;;;;12.52;8.05;;;;;;;15.44;100.00;101263.75;10521135;28;20059;-84
2023/05/14 19:09:40;;;;;;;13.80;7.47;;;;;;;15.29;100.00;101262.38;10519453;28;20093;-84
2023/05/14 19:14:41;;;;;;;11.38;8.85;;;;;;;15.16;100.00;101265.44;10522297;28;20122;-84
2023/05/14 19:19:41;;;;;;;16.80;8.65;;;;;;;15.06;100.00;101265.09;10524983;28;20115;-84
2023/05/14 19:24:42;;;;;;;15.80;8.40;;;;;;;14.98;100.00;101270.06;10522694;28;20123;-84
2023/05/14 19:29:43;;;;;;;11.90;8.43;;;;;;;14.97;100.00;101280.59;10519882;28;20115;-83
2023/05/14 19:34:43;;;;;;;13.18;8.20;;;;;;;14.97;100.00;101281.47;10508085;28;20105;-83
2023/05/14 19:39:44;;;;;;;10.82;8.02;;;;;;;14.94;100.00;101291.88;10525879;28;20071;-86
2023/05/14 19:44:44;;;;;;;11.70;8.77;;;;;;;14.94;100.00;101294.53;10531241;28;20056;-85
2023/05/14 19:49:45;;;;;;;14.88;9.38;;;;;;;14.93;100.00;101294.50;10531712;28;20128;-85
2023/05/14 19:54:45;;;;;;;16.27;11.00;;;;;;;14.83;100.00;101291.50;10513587;28;20040;-84
2023/05/14 19:59:46;;;;;;;13.38;9.65;;;;;;;14.65;100.00;101299.56;10491295;28;20178;-84
2023/05/14 20:04:46;;;;;;;16.75;11.60;;;;;;;14.47;100.00;101297.16;10505080;28;20127;-85
2023/05/14 20:09:47;;;;;;;25.38;14.35;;;;;;;14.35;100.00;101292.28;10514113;28;20110;-85
2023/05/14 20:14:47;;;;;;;25.33;15.70;;;;;;;14.28;100.00;101289.38;10513937;28;20081;-84
2023/05/14 20:19:48;;;;;;;19.27;14.50;;;;;;;14.26;100.00;101291.94;10529563;28;20126;-84
2023/05/14 20:24:48;;;;;;;23.83;15.98;;;;;;;14.19;100.00;101289.91;10531226;28;20071;-85
2023/05/14 20:29:52;;;;;;;23.55;14.48;;;;;;;14.13;100.00;101294.91;10529129;28;20089;-84
2023/05/14 20:34:53;;;;;;;27.88;16.77;;;;;;;14.04;100.00;101287.56;10530528;28;20043;-85
2023/05/14 20:39:54;;;;;;;24.52;14.85;;;;;;;13.98;100.00;101295.22;10532375;28;20067;-84
2023/05/14 20:44:54;;;;;;;28.25;14.77;;;;;;;13.83;100.00;101298.09;10528949;28;20078;-84
2023/05/14 20:49:55;;;;;;;27.15;16.02;;;;;;;13.65;100.00;101322.81;10522679;28;20056;-85
2023/05/14 20:54:55;;;;;;;25.40;16.42;;;;;;;13.55;100.00;101312.72;10521027;28;20047;-86
2023/05/14 20:59:56;;;;;;;26.02;15.75;;;;;;;13.50;100.00;101302.91;10515683;28;20173;-84
2023/05/14 21:04:56;;;;;;;23.30;16.58;;;;;;;13.55;100.00;101315.34;10513158;28;20072;-85
2023/05/14 21:09:57;;;;;;;24.52;16.08;;;;;;;13.49;100.00;101311.63;10528367;28;20131;-83
2023/05/14 21:14:57;;;;;;;25.10;17.30;;;;;;;13.41;100.00;101323.50;10511339;28;20467;-83
2023/05/14 21:19:58;;;;;;;32.38;17.83;;;;;;;13.41;100.00;101327.91;10529565;28;20075;-84
2023/05/14 21:24:58;;;;;;;34.45;18.15;;;;;;;13.32;100.00;101325.75;10529729;28;20502;-84
2023/05/14 21:29:59;;;;;;;30.40;19.98;;;;;;;13.22;100.00;101330.59;10528810;28;20453;-83
2023/05/14 21:34:59;;;;;;;30.27;19.65;;;;;;;13.13;100.00;101322.31;10511920;28;20485;-84
2023/05/14 21:40:00;;;;;;;35.47;20.58;;;;;;;13.01;100.00;101324.38;10520627;28;20111;-83
2023/05/14 21:45:01;;;;;;;30.58;21.20;;;;;;;12.94;100.00;101336.38;10519774;28;20058;-84
2023/05/14 21:50:01;;;;;;;32.42;20.35;;;;;;;12.84;100.00;101327.16;10527214;28;20040;-84
2023/05/14 21:55:02;;;;;;;31.48;20.65;;;;;;;12.74;100.00;101320.59;10526397;28;20035;-84
2023/05/14 22:00:06;;;;;;;32.42;21.48;;;;;;;12.63;100.00;101327.94;10525155;28;20043;-85
2023/05/14 22:05:07;;;;;;;39.15;21.50;;;;;;;12.54;100.00;101330.16;10525261;28;20152;-84
2023/05/14 22:10:08;;;;;;;34.13;21.08;;;;;;;12.39;100.00;101339.91;10526788;28;20040;-84
2023/05/14 22:15:09;;;;;;;29.73;20.13;;;;;;;12.27;100.00;101341.13;10526527;28;20032;-85
2023/05/14 22:20:10;;;;;;;34.42;22.55;;;;;;;12.18;100.00;101335.44;10525842;28;20123;-85
2023/05/14 22:25:10;;;;;;;33.58;22.50;;;;;;;12.07;100.00;101340.19;10508110;28;20044;-84
2023/05/14 22:30:11;;;;;;;36.03;22.60;;;;;;;11.96;100.00;101342.22;10525582;28;20092;-84
2023/05/14 22:35:11;;;;;;;48.65;25.48;;;;;;;11.91;100.00;101341.09;10524264;28;20036;-84
2023/05/14 22:40:12;;;;;;;38.45;27.52;;;;;;;11.89;100.00;101337.50;10506286;28;20127;-84